Time;durP1;ratioP1;P1;durP2;ratioP2;P2;SDS_P1;SDS_P2;PMS_P1;PMS_P2;Temp;Humidity;BMP_temperature;BMP_pressure;BME280_temperature;BME280_humidity;BME280_pressure;Samples;Min_cycle;Max_cycle;Signal;HPM_P1;HPM_P2
2021/03/17 00:01:42;;;;;;;2.50;2.30;;;5.70;99.90;;;;;;5071186;28;20182;-51
2021/03/17 00:04:08;;;;;;;2.37;2.17;;;5.50;99.90;;;;;;5083897;28;20606;-51
2021/03/17 00:06:33;;;;;;;3.80;2.40;;;5.60;99.90;;;;;;5073709;28;20327;-51
2021/03/17 00:08:59;;;;;;;2.83;2.30;;;5.70;99.90;;;;;;5076300;28;20249;-50
2021/03/17 00:11:25;;;;;;;2.27;2.10;;;5.50;99.90;;;;;;5087102;28;20186;-50
2021/03/17 00:13:50;;;;;;;2.47;2.27;;;5.80;99.90;;;;;;5083041;28;20179;-51
2021/03/17 00:16:16;;;;;;;2.20;2.00;;;5.60;99.90;;;;;;5083165;28;20650;-51
2021/03/17 00:18:42;;;;;;;2.60;2.20;;;5.60;99.90;;;;;;5080623;28;20210;-51
2021/03/17 00:21:07;;;;;;;2.37;2.10;;;5.60;99.90;;;;;;5075305;28;20184;-51
2021/03/17 00:23:33;;;;;;;2.53;2.30;;;5.30;99.90;;;;;;5077654;28;20190;-52
2021/03/17 00:25:58;;;;;;;2.10;1.90;;;5.80;99.90;;;;;;5075231;28;20196;-51
2021/03/17 00:28:24;;;;;;;2.63;2.00;;;5.90;99.90;;;;;;5073051;28;20300;-51
2021/03/17 00:30:50;;;;;;;2.60;2.40;;;5.80;99.90;;;;;;5080632;28;20240;-51
2021/03/17 00:33:15;;;;;;;2.80;2.60;;;6.00;99.90;;;;;;5078522;28;20640;-51
2021/03/17 00:35:42;;;;;;;2.23;2.03;;;5.40;99.90;;;;;;5071963;28;20179;-51
2021/03/17 00:38:08;;;;;;;3.60;2.70;;;5.80;99.90;;;;;;5076028;28;20206;-51
2021/03/17 00:40:35;;;;;;;2.53;2.30;;;5.90;99.90;;;;;;5072840;28;20189;-51
2021/03/17 00:43:01;;;;;;;8.35;2.40;;;5.80;99.90;;;;;;5080277;28;20187;-51
2021/03/17 00:45:27;;;;;;;3.10;2.40;;;5.50;99.90;;;;;;5082488;28;20189;-52
2021/03/17 00:47:53;;;;;;;2.50;2.30;;;5.60;99.90;;;;;;5082761;28;20217;-52
2021/03/17 00:50:19;;;;;;;2.50;2.30;;;5.60;99.90;;;;;;5080120;28;20174;-51
2021/03/17 00:52:45;;;;;;;2.70;2.50;;;5.50;99.90;;;;;;5078702;28;20323;-52
2021/03/17 00:55:12;;;;;;;2.37;2.17;;;5.80;99.90;;;;;;5072787;28;20276;-51
2021/03/17 00:57:39;;;;;;;3.13;2.83;;;5.80;99.90;;;;;;5075796;28;20252;-51
2021/03/17 01:00:07;;;;;;;2.90;2.55;;;5.80;99.90;;;;;;5073451;28;20186;-50
2021/03/17 01:02:33;;;;;;;3.13;2.83;;;5.50;99.90;;;;;;5073239;28;20324;-51
2021/03/17 01:04:59;;;;;;;6.80;2.73;;;5.70;99.90;;;;;;5076161;28;20273;-51
2021/03/17 01:07:24;;;;;;;3.30;3.00;;;5.50;99.90;;;;;;5077997;28;20229;-51
2021/03/17 01:09:50;;;;;;;3.60;2.87;;;5.80;99.90;;;;;;5080993;28;20250;-51
2021/03/17 01:12:16;;;;;;;3.67;3.30;;;5.80;99.90;;;;;;5087702;28;20184;-50
2021/03/17 01:14:42;;;;;;;3.13;2.83;;;5.80;99.90;;;;;;5082858;28;20188;-51
2021/03/17 01:17:08;;;;;;;3.75;3.13;;;5.70;99.90;;;;;;5077895;28;20239;-51
2021/03/17 01:19:34;;;;;;;4.00;3.60;;;5.70;99.90;;;;;;5073801;28;20226;-51
2021/03/17 01:22:00;;;;;;;3.97;3.53;;;5.90;99.90;;;;;;5073898;28;20476;-51
2021/03/17 01:24:26;;;;;;;4.33;3.60;;;5.50;99.90;;;;;;5084839;28;20268;-51
2021/03/17 01:26:51;;;;;;;3.13;2.93;;;5.70;99.90;;;;;;5080878;28;20214;-51
2021/03/17 01:29:17;;;;;;;3.73;3.40;;;5.70;99.90;;;;;;5070575;28;20208;-51
2021/03/17 01:31:43;;;;;;;4.00;3.30;;;5.80;99.90;;;;;;5076312;28;20444;-51
2021/03/17 01:34:08;;;;;;;3.93;3.53;;;5.60;99.90;;;;;;5077375;28;20187;-51
2021/03/17 01:36:34;;;;;;;4.57;3.93;;;5.30;99.90;;;;;;5084880;28;20200;-51
2021/03/17 01:39:00;;;;;;;3.60;3.20;;;5.30;99.90;;;;;;5073653;28;20630;-51
2021/03/17 01:41:25;;;;;;;4.20;3.80;;;5.50;99.90;;;;;;5083100;28;20198;-51
2021/03/17 01:43:51;;;;;;;3.77;3.10;;;5.40;99.90;;;;;;5082020;28;20432;-51
2021/03/17 01:46:17;;;;;;;4.20;3.50;;;5.50;99.90;;;;;;5081986;28;20564;-51
2021/03/17 01:48:43;;;;;;;4.50;3.57;;;5.40;99.90;;;;;;5075976;28;20704;-51
2021/03/17 01:51:08;;;;;;;3.23;2.93;;;5.50;99.90;;;;;;5071695;28;20285;-51
2021/03/17 01:53:36;;;;;;;3.70;3.30;;;5.40;99.90;;;;;;5075133;28;20191;-51
2021/03/17 01:56:04;;;;;;;3.90;3.50;;;5.60;99.90;;;;;;5083358;28;20456;-52
2021/03/17 01:58:31;;;;;;;3.50;3.20;;;5.40;99.90;;;;;;5081410;28;20711;-51
2021/03/17 02:00:57;;;;;;;3.70;2.90;;;5.50;99.90;;;;;;5085033;28;20652;-51
2021/03/17 02:03:23;;;;;;;4.05;3.67;;;5.40;99.90;;;;;;5080560;28;20192;-51
2021/03/17 02:05:50;;;;;;;4.10;3.67;;;5.50;99.90;;;;;;5075895;28;20558;-51
2021/03/17 02:08:18;;;;;;;4.15;3.10;;;5.30;99.90;;;;;;5072461;28;20313;-51
2021/03/17 02:10:44;;;;;;;3.75;3.45;;;5.60;99.90;;;;;;5082427;28;20186;-51
2021/03/17 02:13:31;;;;;;;3.47;3.17;;;5.60;99.90;;;;;;5086607;28;20215;-51
2021/03/17 02:16:23;;;;;;;4.80;3.95;;;5.30;99.90;;;;;;5079852;28;20220;-51
2021/03/17 02:19:14;;;;;;;3.95;3.13;;;5.50;99.90;;;;;;5084365;28;20213;-51
2021/03/17 02:22:01;;;;;;;3.88;3.42;;;5.40;99.90;;;;;;5086541;28;20547;-51
2021/03/17 02:24:49;;;;;;;4.45;3.90;;;5.00;99.90;;;;;;5078854;28;20195;-51
2021/03/17 02:27:53;;;;;;;3.65;3.08;;;5.80;99.90;;;;;;5087249;28;20222;-51
2021/03/17 02:30:33;;;;;;;4.10;3.70;;;5.40;99.90;;;;;;5025167;28;20605;-51
2021/03/17 02:33:27;;;;;;;4.50;4.10;;;5.50;99.90;;;;;;5000647;28;20267;-52
2021/03/17 02:36:14;;;;;;;4.03;3.60;;;5.60;99.90;;;;;;5054645;28;20596;-51
2021/03/17 02:38:46;;;;;;;4.40;3.95;;;5.60;99.90;;;;;;5071310;28;20228;-52
2021/03/17 02:41:17;;;;;;;4.95;4.20;;;5.60;99.90;;;;;;5079817;28;20644;-52
2021/03/17 02:43:46;;;;;;;4.18;3.55;;;5.70;99.90;;;;;;5081803;28;20190;-52
2021/03/17 02:46:15;;;;;;;3.70;3.40;;;5.80;99.90;;;;;;5079707;28;20237;-52
2021/03/17 02:48:57;;;;;;;3.80;3.00;;;5.60;99.90;;;;;;5086668;28;20247;-51
2021/03/17 02:51:45;;;;;;;4.22;3.03;;;5.60;99.90;;;;;;5077773;28;20185;-51
2021/03/17 02:54:12;;;;;;;6.00;3.50;;;5.40;99.90;;;;;;5078205;28;20201;-51
2021/03/17 02:56:43;;;;;;;5.97;3.10;;;5.60;99.90;;;;;;5077427;28;20182;-51
2021/03/17 02:59:16;;;;;;;3.47;3.15;;;5.80;99.90;;;;;;5079890;28;20674;-51
2021/03/17 03:01:43;;;;;;;4.88;2.85;;;5.90;99.90;;;;;;5082070;28;20189;-51
2021/03/17 03:04:10;;;;;;;2.95;2.65;;;5.90;99.90;;;;;;5077307;28;20610;-51
2021/03/17 03:06:39;;;;;;;4.72;3.70;;;5.90;99.90;;;;;;5076888;28;20269;-51
2021/03/17 03:09:07;;;;;;;4.25;3.45;;;5.60;99.90;;;;;;5071979;28;20213;-51
2021/03/17 03:11:34;;;;;;;3.00;2.50;;;5.50;99.90;;;;;;5077006;28;20584;-52
2021/03/17 03:14:03;;;;;;;3.33;3.03;;;5.90;99.90;;;;;;5081567;28;20186;-51
2021/03/17 03:16:29;;;;;;;2.50;2.30;;;5.60;99.90;;;;;;5075307;28;20186;-51
2021/03/17 03:18:55;;;;;;;3.03;2.40;;;5.80;99.90;;;;;;5084875;28;20678;-51
2021/03/17 03:21:23;;;;;;;2.60;2.40;;;5.70;99.90;;;;;;5080584;28;20182;-51
2021/03/17 03:23:50;;;;;;;2.60;2.40;;;5.50;99.90;;;;;;5077300;28;20190;-51
2021/03/17 03:26:19;;;;;;;3.80;3.50;;;5.30;99.90;;;;;;5077884;28;20198;-51
2021/03/17 03:28:48;;;;;;;5.18;3.33;;;5.60;99.90;;;;;;5080496;28;20214;-51
2021/03/17 03:31:14;;;;;;;5.07;4.63;;;5.60;99.90;;;;;;5088771;28;20189;-51
2021/03/17 03:33:39;;;;;;;2.60;2.40;;;5.90;99.90;;;;;;5082628;28;20183;-51
2021/03/17 03:36:05;;;;;;;3.60;3.30;;;5.60;99.90;;;;;;5078110;28;20722;-51
2021/03/17 03:38:31;;;;;;;3.85;3.15;;;5.50;99.90;;;;;;5080045;28;20212;-51
2021/03/17 03:40:57;;;;;;;2.97;2.50;;;5.90;99.90;;;;;;5079981;28;20192;-51
2021/03/17 03:43:23;;;;;;;2.87;2.57;;;5.70;99.90;;;;;;5077173;28;20197;-51
2021/03/17 03:45:49;;;;;;;3.22;2.65;;;5.70;99.90;;;;;;5072552;28;20439;-51
2021/03/17 03:48:15;;;;;;;4.27;3.87;;;5.50;99.90;;;;;;5084272;28;20732;-51
2021/03/17 03:50:46;;;;;;;3.67;3.17;;;5.20;99.90;;;;;;5068688;28;20548;-51
2021/03/17 03:53:31;;;;;;;3.20;3.00;;;5.50;99.90;;;;;;5081191;28;20506;-51
2021/03/17 03:56:05;;;;;;;3.20;2.90;;;5.40;99.90;;;;;;5077483;28;20184;-51
2021/03/17 03:58:36;;;;;;;3.38;2.75;;;5.10;99.90;;;;;;5085647;28;20321;-51
2021/03/17 04:01:10;;;;;;;3.05;2.75;;;5.60;99.90;;;;;;5086682;28;20176;-51
2021/03/17 04:03:42;;;;;;;3.05;2.60;;;5.50;99.90;;;;;;5078331;28;20209;-52
2021/03/17 04:06:10;;;;;;;3.90;3.50;;;5.50;99.90;;;;;;5069285;28;20535;-51
2021/03/17 04:08:40;;;;;;;3.22;2.92;;;5.50;99.90;;;;;;5077093;28;20223;-52
2021/03/17 04:11:07;;;;;;;3.08;2.85;;;5.60;99.90;;;;;;5075366;28;20178;-52
2021/03/17 04:13:35;;;;;;;3.40;3.10;;;5.40;99.90;;;;;;5076646;28;20184;-51
2021/03/17 04:16:01;;;;;;;3.80;3.40;;;5.40;99.90;;;;;;5078591;28;20196;-52
2021/03/17 04:18:33;;;;;;;4.35;2.97;;;5.30;99.90;;;;;;5068044;28;20257;-51
2021/03/17 04:21:05;;;;;;;4.80;3.08;;;5.20;99.90;;;;;;5080181;28;20196;-51
2021/03/17 04:23:35;;;;;;;6.28;3.97;;;5.30;99.90;;;;;;5086743;28;20257;-51
2021/03/17 04:26:01;;;;;;;4.43;4.03;;;5.50;99.90;;;;;;5075918;28;20197;-51
2021/03/17 04:28:28;;;;;;;4.30;3.90;;;5.60;99.90;;;;;;5084615;28;20213;-51
2021/03/17 04:30:58;;;;;;;4.72;4.22;;;5.50;99.90;;;;;;5080125;28;20657;-51
2021/03/17 04:33:24;;;;;;;4.60;4.20;;;5.50;99.90;;;;;;5077967;28;20194;-51
2021/03/17 04:35:54;;;;;;;4.50;4.10;;;5.70;99.90;;;;;;5078167;28;20635;-51
2021/03/17 04:38:21;;;;;;;4.47;4.07;;;5.60;99.90;;;;;;5069884;28;20669;-51
2021/03/17 04:40:47;;;;;;;5.22;4.72;;;5.80;99.90;;;;;;5086746;28;20189;-51
2021/03/17 04:43:13;;;;;;;8.05;5.63;;;5.40;99.90;;;;;;5081489;28;20232;-51
2021/03/17 04:45:39;;;;;;;6.70;5.40;;;5.90;99.90;;;;;;5080719;28;20182;-52
2021/03/17 04:48:06;;;;;;;6.60;5.85;;;5.50;99.90;;;;;;5076291;28;20213;-52
2021/03/17 04:50:32;;;;;;;8.77;5.55;;;5.30;99.90;;;;;;5084335;28;20187;-51
2021/03/17 04:52:58;;;;;;;7.07;6.38;;;5.50;99.90;;;;;;5076211;28;20216;-51
2021/03/17 04:55:25;;;;;;;5.80;5.20;;;5.80;99.90;;;;;;5086708;28;20292;-51
2021/03/17 04:57:52;;;;;;;5.97;5.38;;;5.70;99.90;;;;;;5076596;28;20204;-51
2021/03/17 05:00:21;;;;;;;6.03;5.43;;;5.20;99.90;;;;;;5086304;28;20196;-51
2021/03/17 05:02:56;;;;;;;7.30;6.50;;;5.40;99.90;;;;;;5086110;28;20189;-51
2021/03/17 05:05:23;;;;;;;7.95;7.10;;;5.40;99.90;;;;;;5075004;28;20184;-51
2021/03/17 05:07:51;;;;;;;6.95;6.20;;;5.20;99.90;;;;;;5076061;28;20244;-51
2021/03/17 05:10:18;;;;;;;6.05;5.25;;;5.50;99.90;;;;;;5074667;28;20587;-50
2021/03/17 05:12:45;;;;;;;8.82;6.63;;;5.40;99.90;;;;;;5072139;28;20182;-51
2021/03/17 05:15:11;;;;;;;6.43;5.80;;;5.40;99.90;;;;;;5078115;28;20639;-51
2021/03/17 05:17:38;;;;;;;6.80;6.10;;;5.40;99.90;;;;;;5078546;28;20208;-51
2021/03/17 05:20:12;;;;;;;7.15;6.25;;;5.30;99.90;;;;;;5076049;28;20197;-51
2021/03/17 05:22:41;;;;;;;7.18;6.47;;;5.30;99.90;;;;;;5085791;28;20458;-52
2021/03/17 05:25:09;;;;;;;7.82;7.03;;;5.40;99.90;;;;;;5081031;28;20181;-51
2021/03/17 05:27:36;;;;;;;8.82;7.95;;;5.60;99.90;;;;;;5079348;28;20229;-51
2021/03/17 05:30:07;;;;;;;7.68;6.28;;;5.60;99.90;;;;;;5086954;28;20178;-51
2021/03/17 05:32:34;;;;;;;8.82;7.50;;;5.80;99.90;;;;;;5074675;28;20234;-51
2021/03/17 05:35:09;;;;;;;7.65;6.57;;;5.50;99.90;;;;;;5089754;28;20663;-51
2021/03/17 05:37:35;;;;;;;8.00;7.20;;;5.80;99.90;;;;;;5086259;28;20695;-51
2021/03/17 05:40:04;;;;;;;9.18;7.72;;;5.60;99.90;;;;;;5082498;28;20276;-52
2021/03/17 05:42:30;;;;;;;8.05;7.15;;;5.60;99.90;;;;;;5077657;28;20217;-52
2021/03/17 05:44:55;;;;;;;8.73;7.23;;;5.80;99.90;;;;;;5084938;28;20258;-52
2021/03/17 05:47:22;;;;;;;7.93;7.13;;;5.60;99.90;;;;;;5085472;28;20213;-51
2021/03/17 05:49:48;;;;;;;9.85;8.10;;;5.70;99.90;;;;;;5081114;28;20458;-51
2021/03/17 05:52:16;;;;;;;9.50;8.18;;;5.60;99.90;;;;;;5076342;28;20177;-52
2021/03/17 05:54:42;;;;;;;9.45;8.45;;;5.70;99.90;;;;;;5080193;28;20660;-52
2021/03/17 05:57:11;;;;;;;10.32;8.57;;;5.60;99.90;;;;;;5083055;28;20661;-51
2021/03/17 05:59:36;;;;;;;11.25;9.07;;;5.70;99.90;;;;;;5078410;28;20557;-51
2021/03/17 06:02:03;;;;;;;10.53;9.37;;;5.40;99.90;;;;;;5082700;28;20200;-51
2021/03/17 06:04:29;;;;;;;9.75;8.70;;;5.50;99.90;;;;;;5075315;28;20561;-52
2021/03/17 06:07:00;;;;;;;11.05;9.18;;;5.30;99.90;;;;;;5084035;28;20205;-52
2021/03/17 06:09:27;;;;;;;12.68;10.23;;;5.30;99.90;;;;;;5082853;28;20625;-52
2021/03/17 06:11:54;;;;;;;10.65;9.52;;;5.50;99.90;;;;;;5082266;28;20557;-52
2021/03/17 06:14:26;;;;;;;12.73;9.90;;;5.70;99.90;;;;;;5079600;28;20655;-52
2021/03/17 06:17:03;;;;;;;12.38;9.10;;;5.60;99.90;;;;;;5082425;28;20231;-52
2021/03/17 06:19:34;;;;;;;11.77;10.02;;;6.10;99.90;;;;;;5080063;28;20190;-54
2021/03/17 06:22:00;;;;;;;13.15;10.27;;;5.80;99.90;;;;;;5087008;28;20794;-53
2021/03/17 06:24:27;;;;;;;17.33;10.25;;;6.10;99.90;;;;;;5081420;28;20187;-53
2021/03/17 06:26:54;;;;;;;12.35;10.10;;;6.00;99.90;;;;;;5100218;28;20216;-53
2021/03/17 06:29:19;;;;;;;13.07;9.52;;;5.70;99.90;;;;;;5079632;28;20189;-54
2021/03/17 06:31:48;;;;;;;13.53;9.80;;;5.90;99.90;;;;;;5076095;28;20211;-53
2021/03/17 06:34:14;;;;;;;14.90;10.63;;;5.90;99.90;;;;;;5078276;28;20205;-53
2021/03/17 06:36:57;;;;;;;15.35;9.88;;;5.90;99.90;;;;;;5081145;28;20634;-53
2021/03/17 06:39:23;;;;;;;10.63;9.50;;;5.90;99.90;;;;;;5097760;28;20623;-53
2021/03/17 06:41:53;;;;;;;15.10;11.83;;;5.90;99.90;;;;;;5081861;28;20183;-53
2021/03/17 06:44:24;;;;;;;13.98;11.00;;;6.20;99.90;;;;;;5077117;28;20191;-52
2021/03/17 06:47:13;;;;;;;10.55;9.10;;;6.10;99.90;;;;;;5076181;28;20178;-55
2021/03/17 06:49:44;;;;;;;15.55;11.80;;;6.00;99.90;;;;;;5079013;28;20602;-51
2021/03/17 06:52:31;;;;;;;15.45;11.85;;;5.70;99.90;;;;;;5076814;28;20269;-52
2021/03/17 06:55:06;;;;;;;11.68;10.48;;;5.90;99.90;;;;;;5075531;28;20247;-51
2021/03/17 06:57:31;;;;;;;14.20;10.73;;;6.10;99.90;;;;;;5077633;28;20199;-51
2021/03/17 07:00:25;;;;;;;15.37;10.40;;;5.60;99.90;;;;;;5082613;28;20192;-51
2021/03/17 07:03:05;;;;;;;10.60;9.50;;;5.40;99.90;;;;;;5086372;28;20180;-51
2021/03/17 07:05:44;;;;;;;13.02;10.77;;;5.50;99.90;;;;;;5081144;28;20193;-50
2021/03/17 07:08:12;;;;;;;13.05;9.63;;;5.10;99.90;;;;;;5070271;28;20271;-51
2021/03/17 07:10:43;;;;;;;15.07;10.43;;;5.60;99.90;;;;;;5079668;28;20278;-51
2021/03/17 07:13:12;;;;;;;13.60;10.32;;;5.70;99.90;;;;;;5094047;28;20222;-51
2021/03/17 07:15:38;;;;;;;11.70;9.82;;;5.80;99.90;;;;;;5078135;28;20610;-51
2021/03/17 07:18:18;;;;;;;13.35;9.65;;;5.60;99.90;;;;;;5075311;28;20202;-51
2021/03/17 07:20:55;;;;;;;11.45;9.95;;;5.80;99.90;;;;;;5085485;28;20223;-50
2021/03/17 07:23:34;;;;;;;11.55;9.75;;;5.80;99.90;;;;;;5069988;28;20534;-50
2021/03/17 07:26:07;;;;;;;11.18;9.70;;;5.90;99.90;;;;;;5081266;28;20190;-50
2021/03/17 07:28:48;;;;;;;13.63;9.43;;;6.00;99.90;;;;;;5101103;28;20209;-50
2021/03/17 07:31:18;;;;;;;12.55;9.68;;;5.80;99.90;;;;;;5083491;28;20182;-51
2021/03/17 07:33:44;;;;;;;10.10;9.10;;;5.90;99.90;;;;;;5082340;28;20204;-55
2021/03/17 07:36:11;;;;;;;9.60;8.52;;;6.00;99.90;;;;;;5075581;28;20184;-55
2021/03/17 07:38:37;;;;;;;11.40;9.95;;;6.10;99.90;;;;;;5076431;28;20214;-55
2021/03/17 07:41:04;;;;;;;10.55;8.80;;;5.90;99.90;;;;;;5074325;28;20190;-55
2021/03/17 07:43:31;;;;;;;12.90;9.63;;;6.10;99.90;;;;;;5078246;28;20265;-51
2021/03/17 07:45:59;;;;;;;11.05;9.25;;;6.10;99.90;;;;;;5078186;28;20184;-52
2021/03/17 07:48:27;;;;;;;10.05;8.68;;;6.20;99.90;;;;;;5077327;28;20228;-51
2021/03/17 07:50:54;;;;;;;10.20;8.40;;;6.40;99.90;;;;;;5079264;28;20216;-52
2021/03/17 07:53:23;;;;;;;10.45;9.27;;;6.40;99.90;;;;;;5073976;28;20174;-54
2021/03/17 07:55:52;;;;;;;11.02;8.40;;;6.50;99.90;;;;;;5076285;28;20192;-52
2021/03/17 07:58:18;;;;;;;9.70;8.18;;;6.90;99.90;;;;;;5081203;28;20258;-51
2021/03/17 08:00:44;;;;;;;11.27;8.55;;;6.80;99.90;;;;;;5086128;28;20264;-53
2021/03/17 08:03:14;;;;;;;9.07;7.55;;;6.90;99.90;;;;;;5079907;28;20196;-53
2021/03/17 08:05:41;;;;;;;11.77;8.40;;;6.90;99.90;;;;;;5079551;28;20276;-52
2021/03/17 08:08:07;;;;;;;9.02;7.35;;;6.90;99.90;;;;;;5078389;28;20215;-52
2021/03/17 08:10:36;;;;;;;4.70;4.13;;;7.10;99.90;;;;;;5074086;28;20482;-52
2021/03/17 08:13:03;;;;;;;6.90;5.35;;;7.10;99.90;;;;;;5078465;28;20239;-50
2021/03/17 08:15:29;;;;;;;4.22;3.70;;;7.00;99.90;;;;;;5079861;28;20180;-50
2021/03/17 08:17:55;;;;;;;6.53;3.63;;;7.10;99.90;;;;;;5079817;28;20211;-50
2021/03/17 08:20:22;;;;;;;3.80;3.00;;;7.20;99.90;;;;;;5073086;28;20196;-50
2021/03/17 08:22:51;;;;;;;3.20;2.65;;;7.70;99.90;;;;;;5072789;28;20188;-52
2021/03/17 08:25:38;;;;;;;5.10;3.78;;;7.90;99.30;;;;;;5081620;28;20188;-53
2021/03/17 08:28:19;;;;;;;5.70;5.10;;;7.60;98.20;;;;;;5093973;28;20250;-53
2021/03/17 08:30:45;;;;;;;7.55;5.70;;;7.80;99.70;;;;;;5073912;28;20188;-52
2021/03/17 08:33:10;;;;;;;6.47;5.10;;;7.90;99.90;;;;;;5084123;28;20193;-52
2021/03/17 08:35:59;;;;;;;7.60;5.50;;;8.30;99.00;;;;;;5075096;28;20689;-52
2021/03/17 08:38:52;;;;;;;8.05;5.70;;;8.60;97.30;;;;;;5076207;28;20196;-55
2021/03/17 08:41:37;;;;;;;7.53;5.78;;;8.50;97.60;;;;;;5075933;28;20180;-53
2021/03/17 08:44:17;;;;;;;8.43;6.60;;;9.40;97.10;;;;;;5084645;28;20675;-53
2021/03/17 08:46:43;;;;;;;7.00;6.30;;;9.60;96.70;;;;;;5084353;28;20198;-54
2021/03/17 08:49:10;;;;;;;8.68;6.57;;;9.40;96.40;;;;;;5071965;28;20598;-53
2021/03/17 08:51:45;;;;;;;6.55;5.95;;;9.10;97.10;;;;;;5077090;28;20561;-54
2021/03/17 08:54:30;;;;;;;7.65;6.85;;;9.30;97.00;;;;;;5069864;28;20283;-54
2021/03/17 08:56:57;;;;;;;7.63;5.95;;;8.90;98.20;;;;;;5070499;28;20658;-50
2021/03/17 08:59:22;;;;;;;8.23;6.90;;;8.80;98.30;;;;;;5082656;28;20432;-53
2021/03/17 09:01:48;;;;;;;8.27;6.50;;;9.00;96.30;;;;;;5081791;28;20434;-54
2021/03/17 09:04:47;;;;;;;10.33;5.40;;;8.90;96.30;;;;;;5077031;28;20513;-54
2021/03/17 09:07:13;;;;;;;7.85;6.25;;;9.40;94.80;;;;;;5068607;28;20235;-53
2021/03/17 09:09:47;;;;;;;7.55;5.40;;;9.80;94.00;;;;;;5083561;28;20211;-55
2021/03/17 09:12:14;;;;;;;11.65;6.05;;;9.80;92.90;;;;;;5081397;28;20229;-52
2021/03/17 09:14:40;;;;;;;8.38;5.47;;;10.40;92.80;;;;;;5082248;28;20192;-51
2021/03/17 09:17:13;;;;;;;6.22;5.63;;;10.30;92.50;;;;;;5082124;28;20199;-51
2021/03/17 09:20:01;;;;;;;7.05;4.88;;;10.50;91.20;;;;;;5084825;28;20177;-56
2021/03/17 09:22:37;;;;;;;9.63;6.22;;;10.00;91.70;;;;;;5083297;28;20533;-53
2021/03/17 09:25:38;;;;;;;5.88;5.25;;;9.70;92.60;;;;;;5075841;28;20195;-53
2021/03/17 09:28:05;;;;;;;7.65;5.07;;;9.00;93.60;;;;;;5075530;28;20586;-53
2021/03/17 09:30:35;;;;;;;8.60;4.88;;;9.10;93.70;;;;;;5081956;28;20185;-55
2021/03/17 09:33:07;;;;;;;5.00;3.92;;;9.80;93.10;;;;;;5081935;28;20594;-56
2021/03/17 09:35:33;;;;;;;7.90;4.13;;;9.40;90.10;;;;;;5080733;28;20319;-55
2021/03/17 09:38:02;;;;;;;10.93;4.43;;;9.20;90.10;;;;;;5086589;28;20258;-54
2021/03/17 09:40:33;;;;;;;5.18;4.38;;;9.60;90.70;;;;;;5088260;28;20642;-56
2021/03/17 09:42:59;;;;;;;5.13;3.60;;;9.90;90.80;;;;;;5078814;28;20197;-54
2021/03/17 09:45:25;;;;;;;4.83;3.93;;;9.60;89.50;;;;;;5081975;28;20185;-53
2021/03/17 09:47:56;;;;;;;10.55;4.00;;;9.60;90.50;;;;;;5078372;28;20220;-52
2021/03/17 09:50:22;;;;;;;4.05;3.70;;;8.80;90.20;;;;;;5075506;28;20192;-53
2021/03/17 09:52:47;;;;;;;7.25;4.50;;;8.90;90.50;;;;;;5089075;28;20566;-53
2021/03/17 09:55:27;;;;;;;13.13;4.40;;;8.80;91.20;;;;;;5078694;28;20296;-50
2021/03/17 09:58:01;;;;;;;4.47;4.00;;;9.00;91.90;;;;;;5076711;28;20459;-54
2021/03/17 10:00:27;;;;;;;4.18;3.55;;;8.30;91.10;;;;;;5082069;28;20193;-55
2021/03/17 10:02:56;;;;;;;7.23;4.40;;;9.00;90.90;;;;;;5075993;28;20185;-52
2021/03/17 10:05:22;;;;;;;4.47;3.42;;;9.20;90.80;;;;;;5090629;28;20566;-55
2021/03/17 10:07:47;;;;;;;4.10;3.10;;;10.50;85.80;;;;;;5075383;28;20308;-54
2021/03/17 10:10:13;;;;;;;4.80;3.53;;;11.20;81.90;;;;;;5082448;28;20186;-51
2021/03/17 10:12:42;;;;;;;3.77;3.20;;;11.40;78.50;;;;;;5082857;28;20664;-54
2021/03/17 10:15:13;;;;;;;4.55;4.15;;;12.10;78.10;;;;;;5074711;28;20193;-53
2021/03/17 10:17:40;;;;;;;6.20;3.40;;;12.10;77.20;;;;;;5084287;28;20201;-53
2021/03/17 10:20:08;;;;;;;5.70;4.35;;;11.00;78.10;;;;;;5080175;28;20506;-53
2021/03/17 10:22:34;;;;;;;7.45;3.80;;;11.30;78.90;;;;;;5082137;28;20648;-53
2021/03/17 10:25:09;;;;;;;8.55;5.40;;;10.80;78.50;;;;;;5086366;28;20189;-51
2021/03/17 10:27:48;;;;;;;4.63;3.38;;;10.40;79.60;;;;;;5087438;28;20212;-54
2021/03/17 10:30:31;;;;;;;6.10;3.65;;;10.60;79.70;;;;;;5083970;28;20686;-53
2021/03/17 10:33:01;;;;;;;4.38;3.58;;;10.70;80.90;;;;;;5075498;28;20187;-52
2021/03/17 10:35:31;;;;;;;4.13;3.55;;;11.10;79.00;;;;;;5078061;28;20213;-51
2021/03/17 10:37:59;;;;;;;6.75;4.18;;;11.10;79.40;;;;;;5077223;28;20211;-52
2021/03/17 10:40:26;;;;;;;4.63;3.70;;;10.60;80.70;;;;;;5076843;28;20292;-51
2021/03/17 10:42:58;;;;;;;8.20;6.15;;;10.80;79.40;;;;;;5072306;28;20197;-52
2021/03/17 10:45:25;;;;;;;3.25;2.67;;;10.40;79.60;;;;;;5080222;28;20189;-50
2021/03/17 10:47:51;;;;;;;3.30;2.88;;;10.20;79.90;;;;;;5081378;28;20295;-51
2021/03/17 10:50:34;;;;;;;3.35;2.95;;;10.60;83.50;;;;;;5077625;28;20184;-51
2021/03/17 10:53:00;;;;;;;4.10;3.47;;;10.70;77.60;;;;;;5079948;28;20607;-52
2021/03/17 10:55:29;;;;;;;4.03;3.40;;;10.80;77.60;;;;;;5081320;28;20242;-52
2021/03/17 10:58:13;;;;;;;3.20;2.90;;;11.30;78.30;;;;;;5079125;28;20532;-51
2021/03/17 11:00:40;;;;;;;4.10;2.50;;;12.40;72.60;;;;;;5082821;28;20199;-52
2021/03/17 11:03:23;;;;;;;3.58;3.25;;;12.60;70.10;;;;;;5075383;28;20724;-52
2021/03/17 11:05:50;;;;;;;3.17;2.88;;;12.50;71.30;;;;;;5079752;28;21555;-52
2021/03/17 11:08:16;;;;;;;5.13;3.20;;;11.80;72.20;;;;;;5082297;28;20313;-52
2021/03/17 11:10:49;;;;;;;3.20;2.90;;;10.70;73.90;;;;;;5082291;28;20216;-50
2021/03/17 11:13:18;;;;;;;3.30;2.90;;;10.30;76.60;;;;;;5076913;28;20275;-52
2021/03/17 11:15:47;;;;;;;3.17;2.75;;;10.30;78.50;;;;;;5079843;28;20184;-52
2021/03/17 11:18:27;;;;;;;3.25;2.95;;;10.10;81.90;;;;;;5074970;28;20197;-52
2021/03/17 11:20:54;;;;;;;4.90;2.92;;;10.20;89.30;;;;;;5078470;28;20216;-52
2021/03/17 11:23:23;;;;;;;3.25;2.95;;;9.90;89.30;;;;;;5083423;28;20189;-51
2021/03/17 11:25:51;;;;;;;4.50;3.88;;;9.90;91.90;;;;;;5072708;28;20185;-52
2021/03/17 11:28:18;;;;;;;4.65;3.25;;;9.80;91.50;;;;;;5082902;28;20574;-51
2021/03/17 11:30:50;;;;;;;3.75;3.20;;;9.90;89.60;;;;;;5082476;28;20192;-52
2021/03/17 11:33:16;;;;;;;13.85;9.88;;;9.60;90.00;;;;;;5078095;28;21765;-53
2021/03/17 11:35:43;;;;;;;4.57;4.10;;;9.20;90.50;;;;;;5069920;28;20321;-53
2021/03/17 11:38:10;;;;;;;3.70;3.22;;;9.20;91.30;;;;;;5070651;28;20213;-54
2021/03/17 11:40:36;;;;;;;4.22;3.70;;;9.00;91.80;;;;;;5074759;28;20192;-54
2021/03/17 11:43:11;;;;;;;5.13;4.38;;;8.90;92.90;;;;;;5070372;28;20193;-53
2021/03/17 11:45:39;;;;;;;5.43;4.93;;;8.40;94.00;;;;;;5082438;28;20184;-52
2021/03/17 11:48:05;;;;;;;5.53;4.88;;;8.00;94.70;;;;;;5076108;28;20208;-52
2021/03/17 11:50:32;;;;;;;6.10;4.60;;;8.50;95.70;;;;;;5074064;28;20184;-51
2021/03/17 11:52:57;;;;;;;6.95;5.32;;;8.40;97.00;;;;;;5080143;28;20203;-52
2021/03/17 11:55:24;;;;;;;6.13;5.33;;;8.20;97.40;;;;;;5071409;28;20560;-53
2021/03/17 11:57:50;;;;;;;6.55;4.70;;;8.00;98.60;;;;;;5097539;28;20651;-52
2021/03/17 12:00:17;;;;;;;8.15;4.47;;;7.90;99.10;;;;;;5084798;28;20188;-53
2021/03/17 12:02:43;;;;;;;6.43;4.93;;;7.90;99.90;;;;;;5080650;28;20184;-52
2021/03/17 12:05:09;;;;;;;7.00;5.43;;;7.70;99.90;;;;;;5071774;28;20623;-50
2021/03/17 12:07:36;;;;;;;5.45;4.72;;;7.10;99.90;;;;;;5079547;28;20212;-52
2021/03/17 12:10:04;;;;;;;6.93;5.30;;;6.90;99.90;;;;;;5079063;28;20525;-49
2021/03/17 12:12:31;;;;;;;7.57;5.90;;;6.60;99.90;;;;;;5076887;28;20207;-51
2021/03/17 12:14:57;;;;;;;7.03;5.47;;;6.80;99.90;;;;;;5074166;28;20261;-52
2021/03/17 12:17:22;;;;;;;8.80;7.05;;;6.80;99.90;;;;;;5079403;28;20795;-50
2021/03/17 12:19:48;;;;;;;7.77;6.13;;;6.60;99.90;;;;;;5071244;28;20197;-51
2021/03/17 12:22:14;;;;;;;8.20;6.80;;;6.50;99.90;;;;;;5075438;28;20270;-50
2021/03/17 12:24:39;;;;;;;11.10;6.97;;;6.40;99.90;;;;;;5075017;28;20211;-50
2021/03/17 12:27:05;;;;;;;8.20;6.77;;;6.50;99.90;;;;;;5078715;28;20174;-50
2021/03/17 12:29:31;;;;;;;9.37;7.80;;;6.50;99.90;;;;;;5075890;28;20191;-51
2021/03/17 12:31:56;;;;;;;8.23;6.77;;;6.40;99.90;;;;;;5077093;28;20895;-54
2021/03/17 12:34:22;;;;;;;7.70;6.17;;;6.60;99.90;;;;;;5081857;28;20190;-54
2021/03/17 12:36:48;;;;;;;10.60;8.40;;;6.20;99.90;;;;;;5076916;28;20246;-52
2021/03/17 12:39:13;;;;;;;10.77;7.47;;;6.20;99.90;;;;;;5072120;28;20205;-53
2021/03/17 12:41:41;;;;;;;8.60;6.87;;;5.80;99.90;;;;;;5080949;28;20555;-53
2021/03/17 12:44:07;;;;;;;9.48;8.00;;;5.80;99.90;;;;;;5075451;28;20185;-53
2021/03/17 12:46:32;;;;;;;13.03;7.40;;;5.80;99.90;;;;;;5071962;28;20605;-53
2021/03/17 12:48:58;;;;;;;7.10;6.13;;;6.10;99.90;;;;;;5071021;28;20457;-55
2021/03/17 12:51:23;;;;;;;10.00;7.00;;;5.80;99.90;;;;;;5069510;28;20440;-53
2021/03/17 12:53:49;;;;;;;8.67;6.93;;;6.00;99.90;;;;;;5074769;28;20270;-52
2021/03/17 12:56:16;;;;;;;8.90;6.43;;;5.70;99.90;;;;;;5078485;28;20185;-51
2021/03/17 12:58:41;;;;;;;9.10;6.53;;;5.60;99.90;;;;;;5076834;28;20238;-51
2021/03/17 13:01:07;;;;;;;7.03;5.70;;;5.70;99.90;;;;;;5072594;28;20181;-52
2021/03/17 13:03:33;;;;;;;7.90;6.47;;;5.10;99.90;;;;;;5082456;28;20182;-51
2021/03/17 13:05:59;;;;;;;7.70;6.60;;;5.30;99.90;;;;;;5071531;28;20250;-53